sensor_id;sensor_type;location;lat;lon;timestamp;P1;durP1;ratioP1;P2;durP2;ratioP2
6614;SDS011;3343;42.896;23.912;2022-09-09T00:00:44;1.83;;;1.73;;
6614;SDS011;3343;42.896;23.912;2022-09-09T00:03:16;2.23;;;1.87;;
6614;SDS011;3343;42.896;23.912;2022-09-09T00:05:49;3.00;;;1.63;;
6614;SDS011;3343;42.896;23.912;2022-09-09T00:08:21;4.00;;;2.20;;
6614;SDS011;3343;42.896;23.912;2022-09-09T00:10:59;1.53;;;1.40;;
6614;SDS011;3343;42.896;23.912;2022-09-09T00:13:34;1.83;;;1.60;;
6614;SDS011;3343;42.896;23.912;2022-09-09T00:16:08;3.10;;;2.37;;
6614;SDS011;3343;42.896;23.912;2022-09-09T00:18:46;3.90;;;3.03;;
6614;SDS011;3343;42.896;23.912;2022-09-09T00:21:21;5.07;;;4.53;;
6614;SDS011;3343;42.896;23.912;2022-09-09T00:23:54;5.67;;;4.50;;
6614;SDS011;3343;42.896;23.912;2022-09-09T00:26:22;5.60;;;4.20;;
6614;SDS011;3343;42.896;23.912;2022-09-09T00:29:03;6.23;;;4.87;;
6614;SDS011;3343;42.896;23.912;2022-09-09T00:31:36;5.30;;;4.67;;
6614;SDS011;3343;42.896;23.912;2022-09-09T00:34:05;6.33;;;4.53;;
6614;SDS011;3343;42.896;23.912;2022-09-09T00:36:38;5.53;;;4.33;;
6614;SDS011;3343;42.896;23.912;2022-09-09T00:39:08;5.87;;;4.70;;
6614;SDS011;3343;42.896;23.912;2022-09-09T00:41:57;5.73;;;4.37;;
6614;SDS011;3343;42.896;23.912;2022-09-09T00:44:37;6.47;;;4.40;;
6614;SDS011;3343;42.896;23.912;2022-09-09T00:47:09;6.17;;;4.37;;
6614;SDS011;3343;42.896;23.912;2022-09-09T00:49:46;5.37;;;4.27;;
6614;SDS011;3343;42.896;23.912;2022-09-09T00:52:23;6.70;;;4.60;;
6614;SDS011;3343;42.896;23.912;2022-09-09T00:55:02;6.70;;;4.97;;
6614;SDS011;3343;42.896;23.912;2022-09-09T00:57:34;5.30;;;4.27;;
6614;SDS011;3343;42.896;23.912;2022-09-09T01:02:51;5.53;;;4.40;;
6614;SDS011;3343;42.896;23.912;2022-09-09T01:05:25;4.93;;;4.43;;
6614;SDS011;3343;42.896;23.912;2022-09-09T01:07:56;5.97;;;4.57;;
6614;SDS011;3343;42.896;23.912;2022-09-09T01:10:29;6.07;;;4.73;;
6614;SDS011;3343;42.896;23.912;2022-09-09T01:13:04;6.33;;;4.60;;
6614;SDS011;3343;42.896;23.912;2022-09-09T01:15:41;4.80;;;4.30;;
6614;SDS011;3343;42.896;23.912;2022-09-09T01:18:12;5.80;;;3.83;;
6614;SDS011;3343;42.896;23.912;2022-09-09T01:20:44;6.00;;;4.07;;
6614;SDS011;3343;42.896;23.912;2022-09-09T01:23:27;7.07;;;4.20;;
6614;SDS011;3343;42.896;23.912;2022-09-09T01:26:11;4.27;;;3.77;;
6614;SDS011;3343;42.896;23.912;2022-09-09T01:28:44;4.93;;;4.30;;
6614;SDS011;3343;42.896;23.912;2022-09-09T01:31:15;6.23;;;4.10;;
6614;SDS011;3343;42.896;23.912;2022-09-09T01:33:44;6.07;;;4.70;;
6614;SDS011;3343;42.896;23.912;2022-09-09T01:36:12;4.90;;;4.00;;
6614;SDS011;3343;42.896;23.912;2022-09-09T01:38:44;5.33;;;4.03;;
6614;SDS011;3343;42.896;23.912;2022-09-09T01:41:13;6.83;;;3.97;;
6614;SDS011;3343;42.896;23.912;2022-09-09T01:43:40;4.70;;;3.87;;
6614;SDS011;3343;42.896;23.912;2022-09-09T01:46:06;4.60;;;3.80;;
6614;SDS011;3343;42.896;23.912;2022-09-09T01:48:34;4.67;;;4.07;;
6614;SDS011;3343;42.896;23.912;2022-09-09T01:51:00;5.13;;;4.50;;
6614;SDS011;3343;42.896;23.912;2022-09-09T01:53:27;5.67;;;4.70;;
6614;SDS011;3343;42.896;23.912;2022-09-09T01:55:58;5.90;;;4.23;;
6614;SDS011;3343;42.896;23.912;2022-09-09T01:58:37;4.80;;;3.87;;
6614;SDS011;3343;42.896;23.912;2022-09-09T02:01:15;4.87;;;4.17;;
6614;SDS011;3343;42.896;23.912;2022-09-09T02:03:52;5.00;;;3.83;;
6614;SDS011;3343;42.896;23.912;2022-09-09T02:06:25;4.57;;;4.07;;
6614;SDS011;3343;42.896;23.912;2022-09-09T02:08:56;6.67;;;4.07;;
6614;SDS011;3343;42.896;23.912;2022-09-09T02:11:26;5.27;;;4.50;;
6614;SDS011;3343;42.896;23.912;2022-09-09T02:13:57;4.60;;;4.03;;
6614;SDS011;3343;42.896;23.912;2022-09-09T02:16:28;5.07;;;4.03;;
6614;SDS011;3343;42.896;23.912;2022-09-09T02:19:02;4.47;;;3.83;;
6614;SDS011;3343;42.896;23.912;2022-09-09T02:21:34;6.10;;;4.07;;
6614;SDS011;3343;42.896;23.912;2022-09-09T02:24:03;5.03;;;4.20;;
6614;SDS011;3343;42.896;23.912;2022-09-09T02:26:34;4.80;;;4.30;;
6614;SDS011;3343;42.896;23.912;2022-09-09T02:29:08;5.53;;;4.57;;
6614;SDS011;3343;42.896;23.912;2022-09-09T02:31:37;6.00;;;4.20;;
6614;SDS011;3343;42.896;23.912;2022-09-09T02:34:06;5.47;;;4.40;;
6614;SDS011;3343;42.896;23.912;2022-09-09T02:36:37;6.07;;;4.47;;
6614;SDS011;3343;42.896;23.912;2022-09-09T02:39:07;4.40;;;4.00;;
6614;SDS011;3343;42.896;23.912;2022-09-09T02:41:37;5.47;;;4.20;;
6614;SDS011;3343;42.896;23.912;2022-09-09T02:44:08;4.80;;;3.80;;
6614;SDS011;3343;42.896;23.912;2022-09-09T02:46:42;7.30;;;4.50;;
6614;SDS011;3343;42.896;23.912;2022-09-09T02:49:25;5.10;;;4.03;;
6614;SDS011;3343;42.896;23.912;2022-09-09T02:52:02;6.47;;;4.87;;
6614;SDS011;3343;42.896;23.912;2022-09-09T02:54:33;5.60;;;3.80;;
6614;SDS011;3343;42.896;23.912;2022-09-09T02:57:01;6.63;;;4.40;;
6614;SDS011;3343;42.896;23.912;2022-09-09T02:59:34;4.53;;;3.90;;
6614;SDS011;3343;42.896;23.912;2022-09-09T03:02:01;5.00;;;4.50;;
6614;SDS011;3343;42.896;23.912;2022-09-09T03:04:28;6.20;;;4.87;;
6614;SDS011;3343;42.896;23.912;2022-09-09T03:06:55;4.43;;;3.80;;
6614;SDS011;3343;42.896;23.912;2022-09-09T03:09:22;4.83;;;4.17;;
6614;SDS011;3343;42.896;23.912;2022-09-09T03:11:49;8.47;;;4.50;;
6614;SDS011;3343;42.896;23.912;2022-09-09T03:14:16;5.40;;;4.20;;
6614;SDS011;3343;42.896;23.912;2022-09-09T03:16:47;5.07;;;4.37;;
6614;SDS011;3343;42.896;23.912;2022-09-09T03:19:16;4.07;;;3.60;;
6614;SDS011;3343;42.896;23.912;2022-09-09T03:21:43;5.40;;;4.20;;
6614;SDS011;3343;42.896;23.912;2022-09-09T03:24:10;6.23;;;3.87;;
6614;SDS011;3343;42.896;23.912;2022-09-09T03:26:37;4.27;;;3.67;;
6614;SDS011;3343;42.896;23.912;2022-09-09T03:29:06;4.63;;;4.07;;
6614;SDS011;3343;42.896;23.912;2022-09-09T03:31:33;4.77;;;4.00;;
6614;SDS011;3343;42.896;23.912;2022-09-09T03:34:03;4.77;;;3.83;;
6614;SDS011;3343;42.896;23.912;2022-09-09T03:36:30;8.23;;;4.93;;
6614;SDS011;3343;42.896;23.912;2022-09-09T03:38:57;6.10;;;4.40;;
6614;SDS011;3343;42.896;23.912;2022-09-09T03:41:25;6.10;;;3.90;;
6614;SDS011;3343;42.896;23.912;2022-09-09T03:43:53;6.03;;;4.07;;
6614;SDS011;3343;42.896;23.912;2022-09-09T03:46:20;6.80;;;4.20;;
6614;SDS011;3343;42.896;23.912;2022-09-09T03:48:48;4.57;;;3.80;;
6614;SDS011;3343;42.896;23.912;2022-09-09T03:51:17;4.83;;;4.10;;
6614;SDS011;3343;42.896;23.912;2022-09-09T03:53:44;6.27;;;4.37;;
6614;SDS011;3343;42.896;23.912;2022-09-09T03:56:11;4.97;;;3.97;;
6614;SDS011;3343;42.896;23.912;2022-09-09T03:58:38;7.47;;;3.33;;
6614;SDS011;3343;42.896;23.912;2022-09-09T04:01:09;4.50;;;4.00;;
6614;SDS011;3343;42.896;23.912;2022-09-09T04:03:38;5.97;;;4.17;;
6614;SDS011;3343;42.896;23.912;2022-09-09T04:06:06;7.67;;;4.53;;
6614;SDS011;3343;42.896;23.912;2022-09-09T04:08:36;4.80;;;4.17;;
6614;SDS011;3343;42.896;23.912;2022-09-09T04:11:04;5.97;;;4.27;;
6614;SDS011;3343;42.896;23.912;2022-09-09T04:13:32;5.20;;;4.30;;
6614;SDS011;3343;42.896;23.912;2022-09-09T04:16:00;4.07;;;3.67;;
6614;SDS011;3343;42.896;23.912;2022-09-09T04:18:29;6.33;;;3.93;;
6614;SDS011;3343;42.896;23.912;2022-09-09T04:20:57;7.77;;;4.67;;
6614;SDS011;3343;42.896;23.912;2022-09-09T04:23:24;4.57;;;4.17;;
6614;SDS011;3343;42.896;23.912;2022-09-09T04:25:54;8.23;;;4.23;;
6614;SDS011;3343;42.896;23.912;2022-09-09T04:28:22;4.90;;;4.37;;
6614;SDS011;3343;42.896;23.912;2022-09-09T04:30:50;4.57;;;3.73;;
6614;SDS011;3343;42.896;23.912;2022-09-09T04:33:18;6.50;;;4.50;;
6614;SDS011;3343;42.896;23.912;2022-09-09T04:35:45;5.13;;;3.90;;
6614;SDS011;3343;42.896;23.912;2022-09-09T04:38:14;5.37;;;3.97;;
6614;SDS011;3343;42.896;23.912;2022-09-09T04:40:42;8.37;;;5.57;;
6614;SDS011;3343;42.896;23.912;2022-09-09T04:43:12;8.93;;;5.90;;
6614;SDS011;3343;42.896;23.912;2022-09-09T04:45:39;7.13;;;5.67;;
6614;SDS011;3343;42.896;23.912;2022-09-09T04:48:07;12.27;;;5.87;;
6614;SDS011;3343;42.896;23.912;2022-09-09T04:50:34;8.17;;;5.60;;
6614;SDS011;3343;42.896;23.912;2022-09-09T04:53:02;5.87;;;4.80;;
6614;SDS011;3343;42.896;23.912;2022-09-09T04:55:30;6.10;;;4.60;;
6614;SDS011;3343;42.896;23.912;2022-09-09T04:57:57;15.27;;;11.43;;
6614;SDS011;3343;42.896;23.912;2022-09-09T05:00:25;5.87;;;4.70;;
6614;SDS011;3343;42.896;23.912;2022-09-09T05:02:52;5.50;;;4.30;;
6614;SDS011;3343;42.896;23.912;2022-09-09T05:05:19;7.17;;;5.07;;
6614;SDS011;3343;42.896;23.912;2022-09-09T05:07:46;11.83;;;4.73;;
6614;SDS011;3343;42.896;23.912;2022-09-09T05:10:13;7.47;;;4.90;;
6614;SDS011;3343;42.896;23.912;2022-09-09T05:12:41;10.17;;;3.77;;
6614;SDS011;3343;42.896;23.912;2022-09-09T05:15:09;6.30;;;3.90;;
6614;SDS011;3343;42.896;23.912;2022-09-09T05:17:38;7.72;;;4.10;;
6614;SDS011;3343;42.896;23.912;2022-09-09T05:20:05;6.32;;;4.32;;
6614;SDS011;3343;42.896;23.912;2022-09-09T05:22:33;5.25;;;4.30;;
6614;SDS011;3343;42.896;23.912;2022-09-09T05:24:59;5.50;;;4.43;;
6614;SDS011;3343;42.896;23.912;2022-09-09T05:27:26;6.57;;;4.10;;
6614;SDS011;3343;42.896;23.912;2022-09-09T05:29:53;4.25;;;3.33;;
6614;SDS011;3343;42.896;23.912;2022-09-09T05:32:20;3.92;;;3.50;;
6614;SDS011;3343;42.896;23.912;2022-09-09T05:34:48;4.20;;;3.45;;
6614;SDS011;3343;42.896;23.912;2022-09-09T05:37:16;5.65;;;3.60;;
6614;SDS011;3343;42.896;23.912;2022-09-09T05:39:43;5.65;;;3.10;;
6614;SDS011;3343;42.896;23.912;2022-09-09T05:42:10;5.63;;;3.55;;
6614;SDS011;3343;42.896;23.912;2022-09-09T05:44:37;3.35;;;2.97;;
6614;SDS011;3343;42.896;23.912;2022-09-09T05:47:04;4.03;;;3.05;;
6614;SDS011;3343;42.896;23.912;2022-09-09T05:49:31;3.70;;;3.15;;
6614;SDS011;3343;42.896;23.912;2022-09-09T05:51:59;3.30;;;2.78;;
6614;SDS011;3343;42.896;23.912;2022-09-09T05:54:28;3.15;;;2.83;;
6614;SDS011;3343;42.896;23.912;2022-09-09T05:56:55;5.82;;;2.92;;
6614;SDS011;3343;42.896;23.912;2022-09-09T05:59:22;3.92;;;3.10;;
6614;SDS011;3343;42.896;23.912;2022-09-09T06:01:49;3.58;;;2.60;;
6614;SDS011;3343;42.896;23.912;2022-09-09T06:04:16;3.47;;;2.67;;
6614;SDS011;3343;42.896;23.912;2022-09-09T06:06:43;6.68;;;2.75;;
6614;SDS011;3343;42.896;23.912;2022-09-09T06:09:11;3.90;;;2.65;;
6614;SDS011;3343;42.896;23.912;2022-09-09T06:11:39;3.78;;;2.83;;
6614;SDS011;3343;42.896;23.912;2022-09-09T06:14:06;4.20;;;2.72;;
6614;SDS011;3343;42.896;23.912;2022-09-09T06:16:34;3.50;;;2.60;;
6614;SDS011;3343;42.896;23.912;2022-09-09T06:19:02;2.88;;;2.55;;
6614;SDS011;3343;42.896;23.912;2022-09-09T06:21:30;2.60;;;2.28;;
6614;SDS011;3343;42.896;23.912;2022-09-09T06:23:59;4.68;;;3.17;;
6614;SDS011;3343;42.896;23.912;2022-09-09T06:26:29;3.60;;;2.50;;
6614;SDS011;3343;42.896;23.912;2022-09-09T06:28:57;2.75;;;2.55;;
6614;SDS011;3343;42.896;23.912;2022-09-09T06:31:25;2.25;;;2.05;;
6614;SDS011;3343;42.896;23.912;2022-09-09T06:33:55;3.60;;;2.35;;
6614;SDS011;3343;42.896;23.912;2022-09-09T06:36:24;3.53;;;2.70;;
6614;SDS011;3343;42.896;23.912;2022-09-09T06:38:53;4.65;;;2.60;;
6614;SDS011;3343;42.896;23.912;2022-09-09T06:41:22;2.58;;;2.25;;
6614;SDS011;3343;42.896;23.912;2022-09-09T06:43:52;4.55;;;3.28;;
6614;SDS011;3343;42.896;23.912;2022-09-09T06:46:22;4.38;;;2.35;;
6614;SDS011;3343;42.896;23.912;2022-09-09T06:48:53;4.07;;;2.72;;
6614;SDS011;3343;42.896;23.912;2022-09-09T06:51:23;3.50;;;2.30;;
6614;SDS011;3343;42.896;23.912;2022-09-09T06:53:52;6.40;;;3.50;;
6614;SDS011;3343;42.896;23.912;2022-09-09T06:56:20;4.25;;;2.20;;
6614;SDS011;3343;42.896;23.912;2022-09-09T06:58:49;3.92;;;2.75;;
6614;SDS011;3343;42.896;23.912;2022-09-09T07:01:19;4.00;;;2.78;;
6614;SDS011;3343;42.896;23.912;2022-09-09T07:03:47;2.97;;;2.33;;
6614;SDS011;3343;42.896;23.912;2022-09-09T07:06:16;2.97;;;2.38;;
6614;SDS011;3343;42.896;23.912;2022-09-09T07:08:48;4.43;;;2.90;;
6614;SDS011;3343;42.896;23.912;2022-09-09T07:11:18;3.03;;;2.30;;
6614;SDS011;3343;42.896;23.912;2022-09-09T07:13:45;2.95;;;2.33;;
6614;SDS011;3343;42.896;23.912;2022-09-09T07:16:13;2.53;;;2.28;;
6614;SDS011;3343;42.896;23.912;2022-09-09T07:18:42;3.15;;;2.30;;
6614;SDS011;3343;42.896;23.912;2022-09-09T07:21:10;3.30;;;2.20;;
6614;SDS011;3343;42.896;23.912;2022-09-09T07:23:38;3.00;;;2.38;;
6614;SDS011;3343;42.896;23.912;2022-09-09T07:26:09;2.88;;;2.17;;
6614;SDS011;3343;42.896;23.912;2022-09-09T07:28:37;4.38;;;2.83;;
6614;SDS011;3343;42.896;23.912;2022-09-09T07:31:04;3.13;;;2.15;;
6614;SDS011;3343;42.896;23.912;2022-09-09T07:33:33;3.67;;;2.75;;
6614;SDS011;3343;42.896;23.912;2022-09-09T07:36:04;3.33;;;2.55;;
6614;SDS011;3343;42.896;23.912;2022-09-09T07:38:37;3.92;;;2.75;;
6614;SDS011;3343;42.896;23.912;2022-09-09T07:41:05;2.92;;;2.22;;
6614;SDS011;3343;42.896;23.912;2022-09-09T07:43:37;4.68;;;2.38;;
6614;SDS011;3343;42.896;23.912;2022-09-09T07:46:05;3.40;;;2.78;;
6614;SDS011;3343;42.896;23.912;2022-09-09T07:48:33;3.22;;;2.60;;
6614;SDS011;3343;42.896;23.912;2022-09-09T07:51:06;2.20;;;2.00;;
6614;SDS011;3343;42.896;23.912;2022-09-09T07:53:35;5.50;;;2.53;;
6614;SDS011;3343;42.896;23.912;2022-09-09T07:56:04;3.30;;;2.47;;
6614;SDS011;3343;42.896;23.912;2022-09-09T07:58:32;5.38;;;2.60;;
6614;SDS011;3343;42.896;23.912;2022-09-09T08:00:58;3.47;;;2.80;;
6614;SDS011;3343;42.896;23.912;2022-09-09T08:03:25;3.58;;;2.47;;
6614;SDS011;3343;42.896;23.912;2022-09-09T08:05:52;3.17;;;2.35;;
6614;SDS011;3343;42.896;23.912;2022-09-09T08:08:20;3.45;;;2.72;;
6614;SDS011;3343;42.896;23.912;2022-09-09T08:10:47;2.10;;;1.90;;
6614;SDS011;3343;42.896;23.912;2022-09-09T08:13:14;3.42;;;2.92;;
6614;SDS011;3343;42.896;23.912;2022-09-09T08:15:42;3.45;;;2.80;;
6614;SDS011;3343;42.896;23.912;2022-09-09T08:18:09;4.10;;;2.58;;
6614;SDS011;3343;42.896;23.912;2022-09-09T08:20:36;3.30;;;2.58;;
6614;SDS011;3343;42.896;23.912;2022-09-09T08:23:04;2.80;;;2.53;;
6614;SDS011;3343;42.896;23.912;2022-09-09T08:25:32;5.05;;;3.00;;
6614;SDS011;3343;42.896;23.912;2022-09-09T08:27:59;2.70;;;2.50;;
6614;SDS011;3343;42.896;23.912;2022-09-09T08:30:26;3.05;;;2.70;;
6614;SDS011;3343;42.896;23.912;2022-09-09T08:32:53;3.22;;;2.70;;
6614;SDS011;3343;42.896;23.912;2022-09-09T08:35:20;4.97;;;2.85;;
6614;SDS011;3343;42.896;23.912;2022-09-09T08:37:47;5.30;;;3.00;;
6614;SDS011;3343;42.896;23.912;2022-09-09T08:40:17;3.78;;;2.60;;
6614;SDS011;3343;42.896;23.912;2022-09-09T08:42:52;3.97;;;2.45;;
6614;SDS011;3343;42.896;23.912;2022-09-09T08:45:31;3.50;;;2.42;;
6614;SDS011;3343;42.896;23.912;2022-09-09T08:48:13;3.55;;;2.17;;
6614;SDS011;3343;42.896;23.912;2022-09-09T08:50:53;3.70;;;2.63;;
6614;SDS011;3343;42.896;23.912;2022-09-09T08:53:27;4.07;;;2.85;;
6614;SDS011;3343;42.896;23.912;2022-09-09T08:55:59;2.95;;;2.40;;
6614;SDS011;3343;42.896;23.912;2022-09-09T08:58:29;4.40;;;2.67;;
6614;SDS011;3343;42.896;23.912;2022-09-09T09:01:03;3.45;;;2.70;;
6614;SDS011;3343;42.896;23.912;2022-09-09T09:03:47;4.78;;;3.00;;
6614;SDS011;3343;42.896;23.912;2022-09-09T09:06:26;3.63;;;2.78;;
6614;SDS011;3343;42.896;23.912;2022-09-09T09:09:04;5.30;;;2.85;;
6614;SDS011;3343;42.896;23.912;2022-09-09T09:11:38;6.45;;;3.80;;
6614;SDS011;3343;42.896;23.912;2022-09-09T09:14:10;6.32;;;3.88;;
6614;SDS011;3343;42.896;23.912;2022-09-09T09:16:45;5.40;;;3.08;;
6614;SDS011;3343;42.896;23.912;2022-09-09T09:19:17;5.25;;;3.20;;
6614;SDS011;3343;42.896;23.912;2022-09-09T09:21:48;4.43;;;3.38;;
6614;SDS011;3343;42.896;23.912;2022-09-09T09:24:22;4.55;;;2.95;;
6614;SDS011;3343;42.896;23.912;2022-09-09T09:26:53;3.38;;;2.85;;
6614;SDS011;3343;42.896;23.912;2022-09-09T09:29:23;4.68;;;3.13;;
6614;SDS011;3343;42.896;23.912;2022-09-09T09:31:51;6.05;;;2.80;;
6614;SDS011;3343;42.896;23.912;2022-09-09T09:34:21;4.28;;;2.70;;
6614;SDS011;3343;42.896;23.912;2022-09-09T09:36:52;8.18;;;2.85;;
6614;SDS011;3343;42.896;23.912;2022-09-09T09:39:24;3.83;;;2.85;;
6614;SDS011;3343;42.896;23.912;2022-09-09T09:41:52;3.67;;;2.75;;
6614;SDS011;3343;42.896;23.912;2022-09-09T09:44:25;4.20;;;2.35;;
6614;SDS011;3343;42.896;23.912;2022-09-09T09:47:04;3.88;;;2.72;;
6614;SDS011;3343;42.896;23.912;2022-09-09T09:49:32;4.25;;;2.38;;
6614;SDS011;3343;42.896;23.912;2022-09-09T09:52:00;6.70;;;2.50;;
6614;SDS011;3343;42.896;23.912;2022-09-09T09:54:28;3.78;;;2.78;;
6614;SDS011;3343;42.896;23.912;2022-09-09T09:57:06;3.40;;;2.40;;
6614;SDS011;3343;42.896;23.912;2022-09-09T09:59:36;4.10;;;2.63;;
6614;SDS011;3343;42.896;23.912;2022-09-09T10:05:00;6.90;;;2.80;;
6614;SDS011;3343;42.896;23.912;2022-09-09T10:07:29;4.50;;;2.53;;
6614;SDS011;3343;42.896;23.912;2022-09-09T10:09:57;2.83;;;2.30;;
6614;SDS011;3343;42.896;23.912;2022-09-09T10:12:28;4.93;;;2.20;;
6614;SDS011;3343;42.896;23.912;2022-09-09T10:15:10;5.90;;;2.67;;
6614;SDS011;3343;42.896;23.912;2022-09-09T10:17:54;3.85;;;2.53;;
6614;SDS011;3343;42.896;23.912;2022-09-09T10:20:32;2.92;;;2.40;;
6614;SDS011;3343;42.896;23.912;2022-09-09T10:23:13;3.85;;;2.35;;
6614;SDS011;3343;42.896;23.912;2022-09-09T10:25:59;2.80;;;2.40;;
6614;SDS011;3343;42.896;23.912;2022-09-09T10:31:48;4.85;;;2.70;;
6614;SDS011;3343;42.896;23.912;2022-09-09T10:34:32;3.58;;;2.22;;
6614;SDS011;3343;42.896;23.912;2022-09-09T10:37:11;3.42;;;2.53;;
6614;SDS011;3343;42.896;23.912;2022-09-09T10:39:48;4.10;;;2.70;;
6614;SDS011;3343;42.896;23.912;2022-09-09T10:42:26;3.28;;;2.25;;
6614;SDS011;3343;42.896;23.912;2022-09-09T10:45:00;3.90;;;2.63;;
6614;SDS011;3343;42.896;23.912;2022-09-09T10:47:47;3.17;;;2.53;;
6614;SDS011;3343;42.896;23.912;2022-09-09T10:50:29;3.33;;;2.85;;
6614;SDS011;3343;42.896;23.912;2022-09-09T10:53:17;6.53;;;1.98;;
6614;SDS011;3343;42.896;23.912;2022-09-09T10:55:51;3.10;;;2.67;;
6614;SDS011;3343;42.896;23.912;2022-09-09T10:58:20;4.05;;;2.58;;
6614;SDS011;3343;42.896;23.912;2022-09-09T11:00:53;4.53;;;3.20;;
6614;SDS011;3343;42.896;23.912;2022-09-09T11:03:25;2.97;;;2.50;;
6614;SDS011;3343;42.896;23.912;2022-09-09T11:05:56;4.72;;;2.90;;
6614;SDS011;3343;42.896;23.912;2022-09-09T11:08:26;4.85;;;2.50;;
6614;SDS011;3343;42.896;23.912;2022-09-09T11:10:57;4.13;;;2.55;;
6614;SDS011;3343;42.896;23.912;2022-09-09T11:13:30;2.95;;;2.65;;
6614;SDS011;3343;42.896;23.912;2022-09-09T11:16:04;3.97;;;2.75;;
6614;SDS011;3343;42.896;23.912;2022-09-09T11:18:39;2.97;;;2.67;;
6614;SDS011;3343;42.896;23.912;2022-09-09T11:21:10;3.72;;;2.50;;
6614;SDS011;3343;42.896;23.912;2022-09-09T11:23:47;2.92;;;2.63;;
6614;SDS011;3343;42.896;23.912;2022-09-09T11:26:21;3.80;;;2.50;;
6614;SDS011;3343;42.896;23.912;2022-09-09T11:29:01;3.90;;;2.75;;
6614;SDS011;3343;42.896;23.912;2022-09-09T11:31:46;3.67;;;2.90;;
6614;SDS011;3343;42.896;23.912;2022-09-09T11:34:33;3.53;;;2.97;;
6614;SDS011;3343;42.896;23.912;2022-09-09T11:37:17;4.82;;;2.95;;
6614;SDS011;3343;42.896;23.912;2022-09-09T11:39:58;3.67;;;2.88;;
6614;SDS011;3343;42.896;23.912;2022-09-09T11:42:43;4.70;;;2.85;;
6614;SDS011;3343;42.896;23.912;2022-09-09T11:45:10;3.72;;;3.08;;
6614;SDS011;3343;42.896;23.912;2022-09-09T11:47:51;4.72;;;3.70;;
6614;SDS011;3343;42.896;23.912;2022-09-09T11:50:28;4.03;;;2.50;;
6614;SDS011;3343;42.896;23.912;2022-09-09T11:53:05;5.70;;;3.33;;
6614;SDS011;3343;42.896;23.912;2022-09-09T11:55:47;5.22;;;3.13;;
6614;SDS011;3343;42.896;23.912;2022-09-09T11:58:25;4.70;;;3.10;;
6614;SDS011;3343;42.896;23.912;2022-09-09T12:00:57;4.05;;;3.47;;
6614;SDS011;3343;42.896;23.912;2022-09-09T12:03:32;4.63;;;3.13;;
6614;SDS011;3343;42.896;23.912;2022-09-09T12:09:19;3.60;;;2.88;;
6614;SDS011;3343;42.896;23.912;2022-09-09T12:11:52;7.32;;;3.10;;
6614;SDS011;3343;42.896;23.912;2022-09-09T12:14:34;4.18;;;2.72;;
6614;SDS011;3343;42.896;23.912;2022-09-09T12:17:17;5.50;;;3.10;;
6614;SDS011;3343;42.896;23.912;2022-09-09T12:19:46;4.57;;;2.80;;
6614;SDS011;3343;42.896;23.912;2022-09-09T12:22:20;4.00;;;3.55;;
6614;SDS011;3343;42.896;23.912;2022-09-09T12:25:03;4.88;;;2.90;;
6614;SDS011;3343;42.896;23.912;2022-09-09T12:27:44;3.75;;;3.05;;
6614;SDS011;3343;42.896;23.912;2022-09-09T12:30:28;4.05;;;3.20;;
6614;SDS011;3343;42.896;23.912;2022-09-09T12:33:08;4.82;;;3.65;;
6614;SDS011;3343;42.896;23.912;2022-09-09T12:35:40;3.67;;;3.10;;
6614;SDS011;3343;42.896;23.912;2022-09-09T12:38:16;4.50;;;3.28;;
6614;SDS011;3343;42.896;23.912;2022-09-09T12:40:53;5.15;;;3.28;;
6614;SDS011;3343;42.896;23.912;2022-09-09T12:43:23;4.00;;;3.38;;
6614;SDS011;3343;42.896;23.912;2022-09-09T12:45:57;5.43;;;3.88;;
6614;SDS011;3343;42.896;23.912;2022-09-09T12:48:37;4.75;;;3.47;;
6614;SDS011;3343;42.896;23.912;2022-09-09T12:51:16;5.18;;;3.83;;
6614;SDS011;3343;42.896;23.912;2022-09-09T12:53:50;5.25;;;3.70;;
6614;SDS011;3343;42.896;23.912;2022-09-09T12:56:19;4.45;;;3.28;;
6614;SDS011;3343;42.896;23.912;2022-09-09T12:58:52;3.20;;;2.60;;
6614;SDS011;3343;42.896;23.912;2022-09-09T13:01:22;4.28;;;3.03;;
6614;SDS011;3343;42.896;23.912;2022-09-09T13:03:51;3.63;;;2.90;;
6614;SDS011;3343;42.896;23.912;2022-09-09T13:06:19;3.50;;;2.75;;
6614;SDS011;3343;42.896;23.912;2022-09-09T13:08:52;4.28;;;3.10;;
6614;SDS011;3343;42.896;23.912;2022-09-09T13:11:21;3.55;;;3.03;;
6614;SDS011;3343;42.896;23.912;2022-09-09T13:13:56;5.82;;;2.92;;
6614;SDS011;3343;42.896;23.912;2022-09-09T13:16:25;4.18;;;3.17;;
6614;SDS011;3343;42.896;23.912;2022-09-09T13:18:57;4.20;;;2.78;;
6614;SDS011;3343;42.896;23.912;2022-09-09T13:21:33;3.35;;;2.83;;
6614;SDS011;3343;42.896;23.912;2022-09-09T13:26:55;3.03;;;2.65;;
6614;SDS011;3343;42.896;23.912;2022-09-09T13:29:23;5.75;;;3.17;;
6614;SDS011;3343;42.896;23.912;2022-09-09T13:32:04;6.80;;;3.42;;
6614;SDS011;3343;42.896;23.912;2022-09-09T13:34:33;3.17;;;2.42;;
6614;SDS011;3343;42.896;23.912;2022-09-09T13:37:05;3.65;;;2.78;;
6614;SDS011;3343;42.896;23.912;2022-09-09T13:39:35;5.38;;;3.00;;
6614;SDS011;3343;42.896;23.912;2022-09-09T13:42:04;3.90;;;2.95;;
6614;SDS011;3343;42.896;23.912;2022-09-09T13:44:34;5.72;;;2.80;;
6614;SDS011;3343;42.896;23.912;2022-09-09T13:47:04;5.75;;;2.80;;
6614;SDS011;3343;42.896;23.912;2022-09-09T13:49:34;6.53;;;3.33;;
6614;SDS011;3343;42.896;23.912;2022-09-09T13:52:03;5.15;;;2.90;;
6614;SDS011;3343;42.896;23.912;2022-09-09T13:54:37;4.80;;;3.30;;
6614;SDS011;3343;42.896;23.912;2022-09-09T13:57:05;5.32;;;3.03;;
6614;SDS011;3343;42.896;23.912;2022-09-09T13:59:40;5.07;;;2.95;;
6614;SDS011;3343;42.896;23.912;2022-09-09T14:02:07;4.93;;;2.50;;
6614;SDS011;3343;42.896;23.912;2022-09-09T14:04:34;3.97;;;2.85;;
6614;SDS011;3343;42.896;23.912;2022-09-09T14:07:01;4.00;;;2.95;;
6614;SDS011;3343;42.896;23.912;2022-09-09T14:09:29;5.15;;;2.92;;
6614;SDS011;3343;42.896;23.912;2022-09-09T14:12:00;5.90;;;3.05;;
6614;SDS011;3343;42.896;23.912;2022-09-09T14:14:27;5.55;;;3.53;;
6614;SDS011;3343;42.896;23.912;2022-09-09T14:16:55;4.03;;;2.97;;
6614;SDS011;3343;42.896;23.912;2022-09-09T14:19:22;5.30;;;3.25;;
6614;SDS011;3343;42.896;23.912;2022-09-09T14:21:50;3.10;;;2.80;;
6614;SDS011;3343;42.896;23.912;2022-09-09T14:24:18;5.22;;;3.10;;
6614;SDS011;3343;42.896;23.912;2022-09-09T14:26:45;4.10;;;3.25;;
6614;SDS011;3343;42.896;23.912;2022-09-09T14:29:15;6.32;;;2.70;;
6614;SDS011;3343;42.896;23.912;2022-09-09T14:31:43;3.50;;;3.00;;
6614;SDS011;3343;42.896;23.912;2022-09-09T14:34:11;4.10;;;3.20;;
6614;SDS011;3343;42.896;23.912;2022-09-09T14:36:39;5.72;;;3.08;;
6614;SDS011;3343;42.896;23.912;2022-09-09T14:39:07;5.60;;;2.72;;
6614;SDS011;3343;42.896;23.912;2022-09-09T14:41:34;4.35;;;2.83;;
6614;SDS011;3343;42.896;23.912;2022-09-09T14:44:02;5.18;;;3.45;;
6614;SDS011;3343;42.896;23.912;2022-09-09T14:46:31;7.07;;;2.97;;
6614;SDS011;3343;42.896;23.912;2022-09-09T14:48:58;3.90;;;3.08;;
6614;SDS011;3343;42.896;23.912;2022-09-09T14:51:25;3.17;;;2.65;;
6614;SDS011;3343;42.896;23.912;2022-09-09T14:53:54;4.25;;;3.00;;
6614;SDS011;3343;42.896;23.912;2022-09-09T14:56:24;4.10;;;2.97;;
6614;SDS011;3343;42.896;23.912;2022-09-09T14:58:55;6.03;;;3.10;;
6614;SDS011;3343;42.896;23.912;2022-09-09T15:01:24;3.42;;;3.13;;
6614;SDS011;3343;42.896;23.912;2022-09-09T15:03:55;4.13;;;2.83;;
6614;SDS011;3343;42.896;23.912;2022-09-09T15:06:24;4.00;;;3.10;;
6614;SDS011;3343;42.896;23.912;2022-09-09T15:08:53;6.93;;;3.50;;
6614;SDS011;3343;42.896;23.912;2022-09-09T15:11:23;9.80;;;4.32;;
6614;SDS011;3343;42.896;23.912;2022-09-09T15:13:52;4.63;;;3.78;;
6614;SDS011;3343;42.896;23.912;2022-09-09T15:16:20;8.32;;;4.07;;
6614;SDS011;3343;42.896;23.912;2022-09-09T15:18:50;7.50;;;3.30;;
6614;SDS011;3343;42.896;23.912;2022-09-09T15:21:26;4.18;;;3.20;;
6614;SDS011;3343;42.896;23.912;2022-09-09T15:23:55;5.70;;;3.40;;
6614;SDS011;3343;42.896;23.912;2022-09-09T15:26:23;3.75;;;3.15;;
6614;SDS011;3343;42.896;23.912;2022-09-09T15:28:51;4.13;;;3.42;;
6614;SDS011;3343;42.896;23.912;2022-09-09T15:31:21;4.10;;;3.33;;
6614;SDS011;3343;42.896;23.912;2022-09-09T15:33:49;3.85;;;3.42;;
6614;SDS011;3343;42.896;23.912;2022-09-09T15:36:29;3.72;;;3.20;;
6614;SDS011;3343;42.896;23.912;2022-09-09T15:38:57;4.85;;;3.10;;